Latest Coastal Weather Observations for Green Cape

IDN60701

Issued at 9:35 pm EDT Tuesday 21 October 2014 (issued every 10 minutes, with the page automatically refreshed every 10 minutes)

About coastal observations | Map of coastal stations | Coastal observations for NSW | Marine services | Other Formats
Station Details ID: 069137 Name: GREEN CAPE AWS Lat: -37.26 Lon: 150.05 Height: 19.4 m
Data from the previous 72 hours. | See also: Recent months at Green Cape
Date/Time
EDT
Temp

°C
Wind Pressure Rain
since 9am
mm
Weather Cloud Vis
km
Sea
Height
m
Swell
Dir
 
Speed
knots
Gust
knots
hPa Trend Height
m
Period
s
Dir
21/09:30pm 15.5 NNE 24 29 1028.9 - 0.0 - - - - - - -
21/09:00pm 15.5 NNE 23 28 1029.1 - 0.0 - - - - - - -
21/08:30pm 15.3 NNE 24 29 1029.0 - 0.0 - - - - - - -
21/08:00pm 15.3 NNE 23 27 1029.0 - 0.0 - - - - - - -
21/07:30pm 15.3 NNE 24 29 1028.7 - 0.0 - - - - - - -
21/07:00pm 15.3 NNE 24 28 1028.8 - 0.0 - - - - - - -
21/06:30pm 15.3 NNE 22 26 1028.7 - 0.0 - - - - - - -
21/06:00pm 15.4 NNE 23 26 1028.8 - 0.0 - - - - - - -
21/05:30pm 15.6 NNE 22 27 1028.9 - 0.0 - - - - - - -
21/05:00pm 15.9 NNE 21 24 1029.1 - 0.0 - - - - - - -
21/04:30pm 15.7 NNE 21 25 1029.0 - 0.0 - - - - - - -
21/04:00pm 16.3 NNE 22 25 1029.3 - 0.0 - - - - - - -
21/03:30pm 16.7 NNE 20 24 1029.6 - 0.0 - - - - - - -
21/03:00pm 17.3 NNE 20 23 1030.1 - 0.0 - - - - - - -
21/02:30pm 17.5 NNE 19 23 1030.5 - 0.0 - - - - - - -
21/02:00pm 17.7 NNE 19 22 1030.9 - 0.0 - - - - - - -
21/01:30pm 17.2 NNE 21 23 1031.3 - 0.0 - - - - - - -
21/01:00pm 17.5 NNE 19 23 1031.6 - 0.0 - - - - - - -
21/12:30pm 17.2 NNE 19 21 1032.1 - 0.0 - - - - - - -
21/12:00pm 16.2 NE 19 21 1032.3 - 0.0 - - - - - - -
21/11:30am 16.5 NNE 18 21 1032.7 - 0.0 - - - - - - -
21/11:00am 16.3 NNE 19 21 1032.8 - 0.0 - - - - - - -
21/10:30am 16.4 NNE 17 20 1033.0 - 0.0 - - - - - - -
21/10:00am 16.3 NNE 17 19 1033.0 - 0.0 - - - - - - -
21/09:30am 15.6 NE 16 19 1033.1 - 0.0 - - - - - - -
21/09:00am 15.4 NE 17 20 1032.8 - 0.0 - - - - - - -
21/08:30am 15.0 NE 17 20 1032.6 - 0.0 - - - - - - -
21/08:00am 14.8 NE 15 18 1032.5 - 0.0 - - - - - - -
21/07:30am 14.5 NE 15 19 1032.3 - 0.0 - - - - - - -
21/07:00am 14.5 NE 14 17 1032.1 - 0.0 - - - - - - -
21/06:30am 13.9 NE 10 16 1032.2 - 0.0 - - - - - - -
21/06:00am 14.1 NNE 10 13 1032.0 - 0.0 - - - - - - -
21/05:30am 14.2 NNE 12 15 1031.7 - 0.0 - - - - - - -
21/05:00am 14.1 NNE 9 11 1031.9 - 0.0 - - - - - - -
21/04:30am 14.3 NNE 10 13 1031.8 - 0.0 - - - - - - -
21/04:00am 14.3 NE 9 12 1031.8 - 0.0 - - - - - - -
21/03:30am 14.2 NE 10 12 1032.1 - 0.0 - - - - - - -
21/03:00am 14.1 ENE 11 14 1032.3 - 0.0 - - - - - - -
21/02:30am 14.3 ENE 10 12 1032.7 - 0.0 - - - - - - -
21/02:00am 14.3 ENE 10 14 1032.7 - 0.0 - - - - - - -
21/01:30am 14.2 NE 8 11 1033.0 - 0.0 - - - - - - -
21/01:00am 14.4 NE 10 13 1033.1 - 0.0 - - - - - - -
21/12:30am 14.5 NE 10 12 1033.2 - 0.0 - - - - - - -
21/12:00am 14.5 ENE 10 12 1033.5 - 0.0 - - - - - - -
 
Date/Time
EDT
Temp

°C
Wind Pressure Rain
since 9am
mm
Weather Cloud Vis
km
Sea
Height
m
Swell
Dir
 
Speed
knots
Gust
knots
hPa Trend Height
m
Period
s
Dir
20/11:30pm 14.6 ENE 10 14 1033.4 - 0.0 - - - - - - -
20/11:00pm 14.5 ENE 8 10 1033.6 - 0.0 - - - - - - -
20/10:30pm 14.5 ENE 8 10 1033.6 - 0.0 - - - - - - -
20/10:00pm 14.3 ENE 9 11 1033.7 - 0.0 - - - - - - -
20/09:30pm 14.3 E 8 10 1033.6 - 0.0 - - - - - - -
20/09:00pm 14.2 E 9 10 1033.5 - 0.0 - - - - - - -
20/08:30pm 14.1 E 6 8 1033.3 - 0.0 - - - - - - -
20/08:00pm 14.2 E 7 9 1033.0 - 0.0 - - - - - - -
20/07:30pm 14.3 ESE 7 9 1032.8 - 0.0 - - - - - - -
20/07:00pm 14.4 ESE 7 10 1032.7 - 0.0 - - - - - - -
20/06:30pm 14.5 ESE 8 10 1032.5 - 0.0 - - - - - - -
20/06:00pm 14.8 ESE 7 10 1032.4 - 0.0 - - - - - - -
20/05:30pm 15.0 ESE 8 10 1032.3 - 0.0 - - - - - - -
20/05:00pm 15.4 ESE 8 10 1032.0 - 0.0 - - - - - - -
20/04:30pm 15.5 ESE 8 11 1031.8 - 0.0 - - - - - - -
20/04:00pm 16.6 SE 9 12 1031.6 - 0.0 - - - - - - -
20/03:30pm 17.3 SSE 9 11 1031.7 - 0.0 - - - - - - -
20/03:00pm 16.6 SSE 10 12 1031.8 - 0.0 - - - - - - -
20/02:30pm 16.8 SSE 11 14 1031.8 - 0.0 - - - - - - -
20/02:00pm 17.4 SSE 12 15 1031.9 - 0.0 - - - - - - -
20/01:30pm 17.3 SSE 12 14 1032.1 - 0.0 - - - - - - -
20/01:00pm 16.3 SSE 13 17 1032.0 - 0.0 - - - - - - -
20/12:30pm 16.3 SSE 13 15 1032.1 - 0.0 - - - - - - -
20/12:00pm 16.8 SSE 13 15 1032.4 - 0.0 - - - - - - -
20/11:30am 16.0 SSE 13 16 1032.4 - 0.0 - - - - - - -
20/11:00am 16.5 S 15 19 1032.1 - 0.0 - - - - - - -
20/10:30am 16.0 S 15 17 1032.0 - 0.0 - - - - - - -
20/10:00am 15.7 S 15 19 1031.6 - 0.0 - - - - - - -
20/09:30am 15.9 S 14 17 1031.4 - 0.0 - - - - - - -
20/09:00am 14.6 S 19 24 1030.7 - 0.8 - - - - - - -
20/08:30am 14.4 S 18 20 1030.2 - 0.8 - - - - - - -
20/08:00am 13.6 S 20 23 1029.7 - 0.8 - - - - - - -
20/07:57am 13.4 S 20 23 1029.7 - 0.8 - - - - - - -
20/07:30am 13.0 SW 15 19 1029.5 - 0.2 - - - - - - -
20/07:00am 13.2 SSW 18 25 1028.8 - 0.0 - - - - - - -
20/06:36am 13.0 SW 20 24 1028.7 - 0.0 - - - - - - -
20/06:30am 13.6 S 23 28 1028.3 - 0.0 - - - - - - -
20/06:00am 13.2 S 26 29 1027.4 - 0.0 - - - - - - -
20/05:30am 14.0 SW 24 28 1026.9 - 0.0 - - - - - - -
20/05:00am 14.1 SW 29 34 1026.1 - 0.0 - - - - - - -
20/04:30am 14.3 SW 29 35 1025.6 - 0.0 - - - - - - -
20/04:00am 14.5 SW 28 33 1025.3 - 0.0 - - - - - - -
20/03:30am 15.1 SW 25 30 1024.7 - 0.0 - - - - - - -
20/03:00am 15.2 SW 27 32 1024.5 - 0.0 - - - - - - -
20/02:30am 15.6 SW 25 31 1024.4 - 0.0 - - - - - - -
20/02:00am 15.9 SW 29 36 1023.7 - 0.0 - - - - - - -
20/01:30am 16.0 WSW 28 35 1023.0 - 0.0 - - - - - - -
20/01:27am 15.9 WSW 28 39 1022.9 - 0.0 - - - - - - -
20/01:00am 16.1 WSW 27 32 1022.8 - 0.0 - - - - - - -
20/12:44am 16.4 SW 21 33 1022.9 - 0.0 - - - - - - -
20/12:30am 16.6 SW 17 22 1022.8 - 0.0 - - - - - - -
20/12:00am 17.4 SW 19 23 1022.2 - 0.0 - - - - - - -
 
Date/Time
EDT
Temp

°C
Wind Pressure Rain
since 9am
mm
Weather Cloud Vis
km
Sea
Height
m
Swell
Dir
 
Speed
knots
Gust
knots
hPa Trend Height
m
Period
s
Dir
19/11:30pm 17.8 SW 18 23 1022.0 - 0.0 - - - - - - -
19/11:00pm 17.4 SSW 20 23 1021.4 - 0.0 - - - - - - -
19/10:30pm 17.3 S 24 30 1020.7 - 0.0 - - - - - - -
19/10:17pm 17.6 SSW 18 25 1021.1 - 0.0 - - - - - - -
19/10:00pm 18.0 NW 3 5 1020.2 - 0.0 - - - - - - -
19/09:30pm 18.0 CALM 0 0 1020.3 - 0.0 - - - - - - -
19/09:00pm 17.7 N 6 7 1020.0 - 0.0 - - - - - - -
19/08:30pm 17.7 N 6 7 1019.7 - 0.0 - - - - - - -
19/08:00pm 17.2 N 7 10 1019.5 - 0.0 - - - - - - -
19/07:30pm 17.6 N 7 9 1019.4 - 0.0 - - - - - - -
19/07:00pm 17.7 N 12 13 1018.8 - 0.0 - - - - - - -
19/06:30pm 17.9 N 13 15 1018.4 - 0.0 - - - - - - -
19/06:00pm 18.1 N 14 15 1018.3 - 0.0 - - - - - - -
19/05:30pm 18.1 N 14 16 1018.5 - 0.0 - - - - - - -
19/05:00pm 17.9 N 13 14 1018.4 - 0.0 - - - - - - -
19/04:30pm 18.4 N 13 14 1018.7 - 0.0 - - - - - - -
19/04:00pm 17.9 N 13 14 1018.9 - 0.0 - - - - - - -
19/03:30pm 18.4 N 12 13 1019.0 - 0.0 - - - - - - -
19/03:00pm 18.9 N 13 14 1019.4 - 0.0 - - - - - - -
19/02:30pm 19.2 N 13 14 1019.7 - 0.0 - - - - - - -
19/02:00pm 19.2 N 13 14 1020.2 - 0.0 - - - - - - -
19/01:30pm 19.4 N 13 15 1020.8 - 0.0 - - - - - - -
19/01:00pm 18.8 N 14 15 1020.7 - 0.0 - - - - - - -
19/12:30pm 18.6 N 15 17 1021.0 - 0.0 - - - - - - -
19/12:00pm 18.8 N 12 14 1021.6 - 0.0 - - - - - - -
19/11:30am 17.8 N 14 16 1021.7 - 0.0 - - - - - - -
19/11:00am 18.0 N 13 15 1022.0 - 0.0 - - - - - - -
19/10:30am 16.4 N 14 16 1022.2 - 0.0 - - - - - - -
19/10:00am 16.3 N 14 16 1022.4 - 0.0 - - - - - - -
19/09:30am 15.9 N 17 20 1022.3 - 0.0 - - - - - - -
19/09:00am 16.1 N 15 17 1022.4 - 0.0 - - - - - - -
19/08:30am 15.4 N 14 15 1022.9 - 0.0 - - - - - - -
19/08:00am 14.7 N 12 15 1023.1 - 0.0 - - - - - - -
19/07:30am 14.5 N 11 12 1023.0 - 0.0 - - - - - - -
19/07:00am 14.2 N 9 10 1023.0 - 0.0 - - - - - - -
19/06:30am 14.0 N 8 9 1023.1 - 0.0 - - - - - - -
19/06:00am 14.1 N 9 10 1022.9 - 0.0 - - - - - - -
19/05:30am 14.6 N 10 12 1023.1 - 0.0 - - - - - - -
19/05:00am 14.9 N 14 16 1023.0 - 0.0 - - - - - - -
19/04:30am 15.0 N 12 15 1023.3 - 0.0 - - - - - - -
19/04:00am 14.9 N 13 16 1023.3 - 0.0 - - - - - - -
19/03:30am 15.1 N 16 19 1023.2 - 0.0 - - - - - - -
19/03:00am 15.3 N 16 19 1023.5 - 0.0 - - - - - - -
19/02:30am 15.4 N 15 17 1023.9 - 0.0 - - - - - - -
19/02:00am 15.6 N 15 18 1024.4 - 0.0 - - - - - - -
19/01:30am 15.7 N 17 19 1024.5 - 0.0 - - - - - - -
19/01:00am 15.8 N 18 20 1024.9 - 0.0 - - - - - - -
19/12:30am 15.8 N 16 19 1025.5 - 0.0 - - - - - - -
19/12:00am 15.9 N 16 19 1025.5 - 0.0 - - - - - - -
 
Date/Time
EDT
Temp

°C
Wind Pressure Rain
since 9am
mm
Weather Cloud Vis
km
Sea
Height
m
Swell
Dir
 
Speed
knots
Gust
knots
hPa Trend Height
m
Period
s
Dir
18/11:30pm 15.9 N 16 19 1025.5 - 0.0 - - - - - - -
18/11:00pm 16.1 N 18 20 1025.3 - 0.0 - - - - - - -
18/10:30pm 16.2 N 16 18 1025.4 - 0.0 - - - - - - -
18/10:00pm 16.2 N 17 19 1025.7 - 0.0 - - - - - - -

Other Formats:

Comma delimited format used in spreadsheet applications
http://www.bom.gov.au/fwo/IDN60701/IDN60701.94934.axf

JavaScript Object Notation format (JSON) in row-major order
http://www.bom.gov.au/fwo/IDN60701/IDN60701.94934.json